createdAt,value
2023-01-09T00:00:54.737Z,99309.44
2023-01-09T00:03:21.448Z,99310.56
2023-01-09T00:05:48.081Z,99314.84
2023-01-09T00:08:14.713Z,99315.09
2023-01-09T00:10:41.315Z,99303.75
2023-01-09T00:13:11.300Z,99295.22
2023-01-09T00:15:39.958Z,99284.97
2023-01-09T00:18:06.620Z,99292.13
2023-01-09T00:20:33.208Z,99297.38
2023-01-09T00:22:59.863Z,99290.59
2023-01-09T00:25:26.836Z,99288.19
2023-01-09T00:27:53.431Z,99273.31
2023-01-09T00:30:21.296Z,99281.09
2023-01-09T00:32:47.932Z,99281.31
2023-01-09T00:35:16.879Z,99278.91
2023-01-09T00:37:43.578Z,99258.97
2023-01-09T00:40:11.003Z,99271.16
2023-01-09T00:42:41.284Z,99270.38
2023-01-09T00:45:10.849Z,99268.72
2023-01-09T00:47:40.780Z,99260.06
2023-01-09T00:50:15.278Z,99249.75
2023-01-09T00:52:42.786Z,99259.34
2023-01-09T00:55:09.772Z,99253.34
2023-01-09T00:57:36.448Z,99249.91
2023-01-09T01:00:04.297Z,99256.69
2023-01-09T01:02:31.028Z,99267.25
2023-01-09T01:05:16.394Z,99261.00
2023-01-09T01:07:43.418Z,99261.25
2023-01-09T01:10:16.638Z,99266.63
2023-01-09T01:12:47.068Z,99264.78
2023-01-09T01:15:14.567Z,99257.03
2023-01-09T01:17:41.988Z,99260.56
2023-01-09T01:20:12.070Z,99260.38
2023-01-09T01:22:38.766Z,99258.53
2023-01-09T01:25:05.873Z,99255.25
2023-01-09T01:27:34.939Z,99246.56
2023-01-09T01:30:01.628Z,99252.56
2023-01-09T01:32:28.246Z,99242.13
2023-01-09T01:34:54.822Z,99249.03
2023-01-09T01:37:22.842Z,99243.94
2023-01-09T01:39:52.414Z,99232.81
2023-01-09T01:42:19.264Z,99226.69
2023-01-09T01:44:59.894Z,99217.09
2023-01-09T01:47:38.646Z,99215.50
2023-01-09T01:50:16.178Z,99222.56
2023-01-09T01:52:45.696Z,99220.84
2023-01-09T01:55:12.591Z,99216.38
2023-01-09T01:57:43.144Z,99214.66
2023-01-09T02:00:13.957Z,99212.97
2023-01-09T02:02:46.552Z,99213.91
2023-01-09T02:05:13.233Z,99206.97
2023-01-09T02:07:39.911Z,99216.75
2023-01-09T02:10:06.979Z,99204.56
2023-01-09T02:12:33.600Z,99203.59
2023-01-09T02:15:09.302Z,99205.41
2023-01-09T02:17:54.166Z,99198.56
2023-01-09T02:20:40.505Z,99202.06
2023-01-09T02:23:32.172Z,99196.03
2023-01-09T02:26:17.577Z,99197.00
2023-01-09T02:29:04.346Z,99190.97
2023-01-09T02:31:52.266Z,99196.25
2023-01-09T02:34:21.587Z,99192.88
2023-01-09T02:37:00.146Z,99193.84
2023-01-09T02:39:27.696Z,99186.03
2023-01-09T02:42:05.210Z,99187.72
2023-01-09T02:44:34.408Z,99186.19
2023-01-09T02:47:16.200Z,99186.13
2023-01-09T02:49:52.229Z,99177.31
2023-01-09T02:52:48.173Z,99179.16
2023-01-09T02:55:27.519Z,99169.53
2023-01-09T02:58:08.070Z,99176.63
2023-01-09T03:00:53.415Z,99170.47
2023-01-09T03:03:38.832Z,99168.69
2023-01-09T03:06:15.231Z,99171.41
2023-01-09T03:08:49.177Z,99173.06
2023-01-09T03:11:15.890Z,99162.78
2023-01-09T03:13:52.318Z,99163.63
2023-01-09T03:16:25.965Z,99163.78
2023-01-09T03:18:53.973Z,99174.97
2023-01-09T03:21:20.858Z,99175.97
2023-01-09T03:23:59.153Z,99177.88
2023-01-09T03:26:26.696Z,99172.63
2023-01-09T03:28:53.381Z,99183.06
2023-01-09T03:31:20.063Z,99187.44
2023-01-09T03:33:46.740Z,99178.66
2023-01-09T03:36:14.424Z,99170.75
2023-01-09T03:38:41.151Z,99174.25
2023-01-09T03:41:08.296Z,99170.03
2023-01-09T03:43:35.089Z,99173.47
2023-01-09T03:46:02.226Z,99176.88
2023-01-09T03:48:28.897Z,99179.50
2023-01-09T03:50:56.148Z,99172.63
2023-01-09T03:53:24.309Z,99170.00
2023-01-09T03:55:53.091Z,99161.41
2023-01-09T03:58:20.621Z,99174.50
2023-01-09T04:00:48.952Z,99168.34
2023-01-09T04:03:17.394Z,99158.81
2023-01-09T04:05:45.549Z,99169.25
2023-01-09T04:08:12.224Z,99161.47
2023-01-09T04:10:38.963Z,99153.53
2023-01-09T04:13:05.651Z,99158.00
2023-01-09T04:15:32.319Z,99151.00
2023-01-09T04:17:59.025Z,99149.34
2023-01-09T04:20:25.693Z,99144.84
2023-01-09T04:22:52.333Z,99139.84
2023-01-09T04:25:18.942Z,99141.63
2023-01-09T04:27:45.553Z,99139.09
2023-01-09T04:30:12.468Z,99134.75
2023-01-09T04:32:39.115Z,99127.75
2023-01-09T04:35:07.608Z,99124.28
2023-01-09T04:37:36.666Z,99117.06
2023-01-09T04:40:08.748Z,99114.53
2023-01-09T04:42:35.390Z,99124.13
2023-01-09T04:45:02.129Z,99115.22
2023-01-09T04:47:31.002Z,99101.41
2023-01-09T04:49:57.682Z,99106.66
2023-01-09T04:52:24.357Z,99109.16
2023-01-09T04:54:50.936Z,99104.78
2023-01-09T04:57:17.994Z,99085.53
2023-01-09T04:59:44.689Z,99096.09
2023-01-09T05:02:11.760Z,99100.44
2023-01-09T05:04:38.667Z,99092.38
2023-01-09T05:07:05.309Z,99086.31
2023-01-09T05:09:31.899Z,99082.91
2023-01-09T05:11:58.749Z,99082.78
2023-01-09T05:14:26.271Z,99079.28
2023-01-09T05:16:53.039Z,99075.84
2023-01-09T05:19:19.671Z,99067.19
2023-01-09T05:21:46.316Z,99067.13
2023-01-09T05:24:12.903Z,99061.03
2023-01-09T05:26:39.558Z,99064.47
2023-01-09T05:29:06.200Z,99066.00
2023-01-09T05:31:32.934Z,99064.34
2023-01-09T05:34:00.869Z,99062.53
2023-01-09T05:36:28.240Z,99053.84
2023-01-09T05:38:54.901Z,99065.00
2023-01-09T05:41:23.579Z,99057.06
2023-01-09T05:43:50.799Z,99055.34
2023-01-09T05:46:17.643Z,99052.59
2023-01-09T05:48:45.131Z,99055.13
2023-01-09T05:51:12.594Z,99049.84
2023-01-09T05:53:39.260Z,99048.06
2023-01-09T05:56:06.130Z,99043.75
2023-01-09T05:58:32.746Z,99044.50
2023-01-09T06:00:59.632Z,99050.50
2023-01-09T06:03:26.382Z,99049.69
2023-01-09T06:05:52.989Z,99054.06
2023-01-09T06:08:19.638Z,99043.53
2023-01-09T06:10:47.113Z,99041.66
2023-01-09T06:13:14.310Z,99047.81
2023-01-09T06:15:40.991Z,99050.28
2023-01-09T06:18:07.592Z,99044.19
2023-01-09T06:20:34.823Z,99037.09
2023-01-09T06:23:01.477Z,99046.50
2023-01-09T06:25:28.111Z,99041.25
2023-01-09T06:27:54.742Z,99033.41
2023-01-09T06:30:21.771Z,99044.84
2023-01-09T06:32:49.262Z,99038.47
2023-01-09T06:35:20.417Z,99039.22
2023-01-09T06:37:48.099Z,99034.81
2023-01-09T06:40:14.972Z,99035.88
2023-01-09T06:42:45.754Z,99044.47
2023-01-09T06:45:13.110Z,99036.50
2023-01-09T06:47:40.217Z,99040.00
2023-01-09T06:50:07.598Z,99042.00
2023-01-09T06:52:34.184Z,99039.31
2023-01-09T06:55:00.884Z,99040.13
2023-01-09T06:57:27.610Z,99044.47
2023-01-09T06:59:54.247Z,99043.72
2023-01-09T07:02:22.131Z,99040.06
2023-01-09T07:04:49.003Z,99044.38
2023-01-09T07:07:15.781Z,99027.75
2023-01-09T07:09:42.535Z,99025.00
2023-01-09T07:12:09.377Z,99026.69
2023-01-09T07:14:36.200Z,99032.75
2023-01-09T07:17:03.638Z,99026.53
2023-01-09T07:19:30.411Z,99027.47
2023-01-09T07:21:57.182Z,99024.97
2023-01-09T07:24:23.900Z,99027.56
2023-01-09T07:26:50.631Z,99029.16
2023-01-09T07:29:17.329Z,99023.91
2023-01-09T07:31:43.989Z,99023.91
2023-01-09T07:34:10.709Z,99023.97
2023-01-09T07:36:37.322Z,99024.84
2023-01-09T07:39:04.053Z,99021.84
2023-01-09T07:41:30.745Z,99016.78
2023-01-09T07:43:57.531Z,99004.56
2023-01-09T07:46:24.276Z,99012.59
2023-01-09T07:48:50.924Z,99011.59
2023-01-09T07:51:17.550Z,99016.91
2023-01-09T07:53:44.148Z,99012.41
2023-01-09T07:56:10.776Z,99016.59
2023-01-09T07:58:38.435Z,99015.00
2023-01-09T08:01:05.316Z,99011.47
2023-01-09T08:03:33.481Z,99016.75
2023-01-09T08:06:00.699Z,99014.00
2023-01-09T08:08:27.609Z,99014.81
2023-01-09T08:10:54.218Z,99011.34
2023-01-09T08:13:21.224Z,99017.31
2023-01-09T08:15:47.938Z,99026.88
2023-01-09T08:18:14.563Z,99023.50
2023-01-09T08:20:41.183Z,99032.09
2023-01-09T08:23:07.799Z,99032.00
2023-01-09T08:25:34.467Z,99042.44
2023-01-09T08:28:01.060Z,99046.69
2023-01-09T08:30:27.713Z,99042.41
2023-01-09T08:32:54.490Z,99056.09
2023-01-09T08:35:21.531Z,99042.91
2023-01-09T08:37:48.674Z,99038.53
2023-01-09T08:40:16.514Z,99038.75
2023-01-09T08:43:01.732Z,99045.53
2023-01-09T08:45:47.085Z,99036.81
2023-01-09T08:48:13.776Z,99041.16
2023-01-09T08:50:40.557Z,99045.44
2023-01-09T08:53:07.228Z,99044.66
2023-01-09T08:55:33.816Z,99045.53
2023-01-09T08:58:00.411Z,99045.53
2023-01-09T09:00:27.186Z,99041.78
2023-01-09T09:02:55.743Z,99047.72
2023-01-09T09:05:23.246Z,99038.06
2023-01-09T09:07:50.773Z,99046.69
2023-01-09T09:10:17.967Z,99043.47
2023-01-09T09:12:44.797Z,99050.53
2023-01-09T09:15:23.963Z,99058.34
2023-01-09T09:17:58.839Z,99054.91
2023-01-09T09:20:28.078Z,99058.44
2023-01-09T09:22:54.940Z,99061.91
2023-01-09T09:25:22.164Z,99063.50
2023-01-09T09:27:49.281Z,99062.59
2023-01-09T09:30:17.425Z,99061.75
2023-01-09T09:32:44.085Z,99069.91
2023-01-09T09:35:10.906Z,99073.53
2023-01-09T09:37:37.608Z,99067.63
2023-01-09T09:40:17.521Z,99061.53
2023-01-09T09:43:30.242Z,99061.22
2023-01-09T09:46:14.150Z,99057.63
2023-01-09T09:48:51.806Z,99048.22
2023-01-09T09:51:30.338Z,99053.34
2023-01-09T09:54:04.771Z,99051.50
2023-01-09T09:56:35.275Z,99062.63
2023-01-09T09:59:05.359Z,99063.53
2023-01-09T10:01:41.214Z,99063.34
2023-01-09T10:04:12.333Z,99063.19
2023-01-09T10:06:51.751Z,99070.25
2023-01-09T10:09:45.739Z,99062.31
2023-01-09T10:12:27.749Z,99058.91
2023-01-09T10:15:06.572Z,99064.81
2023-01-09T10:17:44.422Z,99061.44
2023-01-09T10:20:17.101Z,99069.31
2023-01-09T10:22:58.411Z,99066.72
2023-01-09T10:25:31.375Z,99072.53
2023-01-09T10:28:26.157Z,99060.34
2023-01-09T10:31:08.991Z,99064.56
2023-01-09T10:34:06.722Z,99069.72
2023-01-09T10:37:04.187Z,99073.25
2023-01-09T10:39:44.836Z,99067.06
2023-01-09T10:42:18.640Z,99070.22
2023-01-09T10:44:59.940Z,99067.59
2023-01-09T10:47:34.417Z,99064.72
2023-01-09T10:50:14.606Z,99073.28
2023-01-09T10:52:41.964Z,99070.31
2023-01-09T10:55:50.420Z,99076.28
2023-01-09T10:58:18.975Z,99080.19
2023-01-09T11:00:46.716Z,99075.78
2023-01-09T11:03:15.079Z,99082.81
2023-01-09T11:05:42.185Z,99082.66
2023-01-09T11:08:08.712Z,99089.50
2023-01-09T11:10:52.553Z,99092.84
2023-01-09T11:13:20.586Z,99085.28
2023-01-09T11:16:08.174Z,99082.41
2023-01-09T11:18:38.340Z,99087.75
2023-01-09T11:21:26.220Z,99083.25
2023-01-09T11:23:53.603Z,99092.88
2023-01-09T11:26:26.571Z,99093.03
2023-01-09T11:29:07.364Z,99104.63
2023-01-09T11:31:34.412Z,99107.31
2023-01-09T11:34:01.132Z,99120.19
2023-01-09T11:36:28.198Z,99117.53
2023-01-09T11:38:59.240Z,99112.53
2023-01-09T11:41:29.425Z,99118.47
2023-01-09T11:43:58.655Z,99112.91
2023-01-09T11:46:35.685Z,99114.72
2023-01-09T11:49:04.817Z,99112.75
2023-01-09T11:51:35.711Z,99115.44
2023-01-09T11:54:18.308Z,99124.75
2023-01-09T11:56:45.961Z,99131.13
2023-01-09T11:59:16.968Z,99132.97
2023-01-09T12:02:00.710Z,99126.50
2023-01-09T12:04:56.559Z,99145.72
2023-01-09T12:07:55.453Z,99152.63
2023-01-09T12:10:48.992Z,99148.16
2023-01-09T12:13:44.587Z,99140.28
2023-01-09T12:16:34.284Z,99142.94
2023-01-09T12:19:13.282Z,99141.97
2023-01-09T12:21:53.749Z,99141.06
2023-01-09T12:24:41.548Z,99141.34
2023-01-09T12:27:25.385Z,99148.41
2023-01-09T12:30:10.748Z,99143.97
2023-01-09T12:33:05.471Z,99153.66
2023-01-09T12:35:47.049Z,99151.97
2023-01-09T12:38:39.233Z,99157.31
2023-01-09T12:41:07.011Z,99167.72
2023-01-09T12:43:40.578Z,99171.91
2023-01-09T12:46:19.859Z,99182.13
2023-01-09T12:49:14.493Z,99181.44
2023-01-09T12:51:48.430Z,99183.84
2023-01-09T12:54:35.161Z,99182.84
2023-01-09T12:57:06.774Z,99181.13
2023-01-09T12:59:38.438Z,99177.59
2023-01-09T13:02:14.151Z,99183.44
2023-01-09T13:04:46.828Z,99195.50
2023-01-09T13:07:39.318Z,99198.13
2023-01-09T13:10:17.266Z,99191.97
2023-01-09T13:12:44.720Z,99192.47
2023-01-09T13:15:25.528Z,99182.56
2023-01-09T13:18:11.456Z,99194.97
2023-01-09T13:20:53.118Z,99190.50
2023-01-09T13:23:34.086Z,99190.09
2023-01-09T13:26:04.326Z,99187.56
2023-01-09T13:28:37.160Z,99188.31
2023-01-09T13:31:22.651Z,99191.81
2023-01-09T13:33:53.044Z,99195.28
2023-01-09T13:36:26.196Z,99200.63
2023-01-09T13:38:54.008Z,99195.88
2023-01-09T13:41:39.388Z,99197.66
2023-01-09T13:44:16.121Z,99212.44
2023-01-09T13:46:44.730Z,99210.06
2023-01-09T13:49:31.932Z,99209.25
2023-01-09T13:52:04.643Z,99215.09
2023-01-09T13:55:00.349Z,99217.09
2023-01-09T13:57:31.349Z,99219.97
2023-01-09T14:00:20.919Z,99232.19
2023-01-09T14:02:48.980Z,99232.41
2023-01-09T14:05:37.062Z,99238.81
2023-01-09T14:08:06.889Z,99242.38
2023-01-09T14:10:37.180Z,99240.00
2023-01-09T14:13:14.128Z,99246.13
2023-01-09T14:15:44.796Z,99250.25
2023-01-09T14:18:28.657Z,99250.50
2023-01-09T14:21:00.689Z,99248.16
2023-01-09T14:26:22.862Z,99256.47
2023-01-09T14:28:49.674Z,99257.19
2023-01-09T14:31:34.484Z,99270.03
2023-01-09T14:34:35.626Z,99277.19
2023-01-09T14:37:02.693Z,99278.34
2023-01-09T14:39:32.736Z,99288.19
2023-01-09T14:42:06.249Z,99297.16
2023-01-09T14:44:56.480Z,99308.69
2023-01-09T14:47:32.633Z,99316.63
2023-01-09T14:50:18.826Z,99323.56
2023-01-09T14:52:48.693Z,99324.47
2023-01-09T14:55:31.241Z,99335.94
2023-01-09T14:58:18.399Z,99329.09
2023-01-09T15:01:06.177Z,99340.56
2023-01-09T15:03:51.471Z,99339.03
2023-01-09T15:06:44.441Z,99342.72
2023-01-09T15:09:28.554Z,99352.50
2023-01-09T15:11:58.807Z,99356.94
2023-01-09T15:14:30.584Z,99354.44
2023-01-09T15:16:59.027Z,99355.44
2023-01-09T15:19:25.862Z,99369.38
2023-01-09T15:22:03.874Z,99364.16
2023-01-09T15:24:33.440Z,99364.25
2023-01-09T15:27:11.339Z,99362.47
2023-01-09T15:29:37.980Z,99377.41
2023-01-09T15:32:21.841Z,99382.63
2023-01-09T15:34:49.138Z,99385.31
2023-01-09T15:37:30.097Z,99387.19
2023-01-09T15:39:58.067Z,99387.28
2023-01-09T15:42:45.541Z,99396.06
2023-01-09T15:45:24.948Z,99391.63
2023-01-09T15:47:52.183Z,99398.81
2023-01-09T15:50:24.286Z,99404.16
2023-01-09T15:52:51.768Z,99397.28
2023-01-09T15:55:36.880Z,99399.56
2023-01-09T15:58:05.915Z,99409.44
2023-01-09T16:00:41.674Z,99411.22
2023-01-09T16:03:18.730Z,99411.31
2023-01-09T16:05:49.339Z,99419.09
2023-01-09T16:08:20.687Z,99421.03
2023-01-09T16:10:56.521Z,99420.16
2023-01-09T16:13:24.377Z,99429.72
2023-01-09T16:15:51.429Z,99428.88
2023-01-09T16:18:25.330Z,99432.38
2023-01-09T16:21:01.883Z,99435.03
2023-01-09T16:23:28.410Z,99441.09
2023-01-09T16:26:12.607Z,99446.25
2023-01-09T16:28:40.995Z,99442.69
2023-01-09T16:31:19.463Z,99432.31
2023-01-09T16:33:49.863Z,99432.34
2023-01-09T16:36:21.304Z,99434.00
2023-01-09T16:38:48.167Z,99442.69
2023-01-09T16:41:40.705Z,99438.38
2023-01-09T16:44:12.397Z,99453.19
2023-01-09T16:46:43.286Z,99452.22
2023-01-09T16:49:23.730Z,99450.44
2023-01-09T16:51:51.018Z,99455.75
2023-01-09T16:54:17.816Z,99445.31
2023-01-09T16:56:48.418Z,99446.94
2023-01-09T16:59:20.590Z,99445.97
2023-01-09T17:01:51.200Z,99446.16
2023-01-09T17:04:20.174Z,99457.47
2023-01-09T17:06:48.807Z,99459.91
2023-01-09T17:09:17.794Z,99459.09
2023-01-09T17:11:44.798Z,99444.28
2023-01-09T17:14:12.373Z,99448.69
2023-01-09T17:16:41.474Z,99454.84
2023-01-09T17:19:19.029Z,99465.47
2023-01-09T17:21:46.131Z,99462.13
2023-01-09T17:24:31.496Z,99454.47
2023-01-09T17:27:17.281Z,99465.00
2023-01-09T17:29:44.572Z,99473.69
2023-01-09T17:32:15.882Z,99477.22
2023-01-09T17:34:42.939Z,99472.81
2023-01-09T17:37:19.416Z,99471.16
2023-01-09T17:39:46.413Z,99474.72
2023-01-09T17:42:13.031Z,99476.34
2023-01-09T17:44:39.668Z,99472.09
2023-01-09T17:47:07.323Z,99469.56
2023-01-09T17:49:34.157Z,99476.50
2023-01-09T17:52:00.961Z,99482.63
2023-01-09T17:54:27.684Z,99478.31
2023-01-09T17:56:54.584Z,99475.84
2023-01-09T17:59:21.334Z,99481.97
2023-01-09T18:01:48.113Z,99492.59
2023-01-09T18:04:14.900Z,99488.31
2023-01-09T18:06:41.546Z,99489.28
2023-01-09T18:09:10.900Z,99487.66
2023-01-09T18:11:37.534Z,99490.97
2023-01-09T18:14:04.128Z,99493.72
2023-01-09T18:16:31.001Z,99496.41
2023-01-09T18:18:58.713Z,99499.13
2023-01-09T18:21:27.297Z,99505.25
2023-01-09T18:23:54.139Z,99513.91
2023-01-09T18:26:21.292Z,99509.56
2023-01-09T18:28:50.474Z,99512.16
2023-01-09T18:31:22.050Z,99506.88
2023-01-09T18:33:52.173Z,99508.59
2023-01-09T18:36:24.473Z,99508.56
2023-01-09T18:38:52.273Z,99512.00
2023-01-09T18:41:19.353Z,99514.56
2023-01-09T18:43:52.181Z,99524.09
2023-01-09T18:46:23.951Z,99527.50
2023-01-09T18:48:54.676Z,99537.91
2023-01-09T18:51:22.110Z,99542.25
2023-01-09T18:53:49.444Z,99544.91
2023-01-09T18:56:16.451Z,99542.28
2023-01-09T18:58:43.182Z,99554.47
2023-01-09T19:01:09.873Z,99554.44
2023-01-09T19:03:36.663Z,99557.06
2023-01-09T19:06:04.062Z,99561.41
2023-01-09T19:08:32.154Z,99555.25
2023-01-09T19:10:59.040Z,99561.34
2023-01-09T19:13:29.327Z,99556.13
2023-01-09T19:15:56.752Z,99564.84
2023-01-09T19:18:24.579Z,99569.19
2023-01-09T19:20:52.823Z,99570.06
2023-01-09T19:23:20.605Z,99568.38
2023-01-09T19:25:47.766Z,99572.69
2023-01-09T19:28:14.417Z,99584.06
2023-01-09T19:30:41.828Z,99584.06
2023-01-09T19:33:10.324Z,99584.91
2023-01-09T19:35:37.084Z,99583.22
2023-01-09T19:38:04.113Z,99596.22
2023-01-09T19:40:30.709Z,99585.78
2023-01-09T19:42:57.988Z,99584.91
2023-01-09T19:45:24.832Z,99582.28
2023-01-09T19:47:51.443Z,99590.09
2023-01-09T19:50:18.312Z,99583.13
2023-01-09T19:52:45.686Z,99591.78
2023-01-09T19:55:13.857Z,99595.25
2023-01-09T19:57:42.884Z,99600.44
2023-01-09T20:00:14.258Z,99592.56
2023-01-09T20:02:41.983Z,99603.84
2023-01-09T20:05:09.546Z,99596.00
2023-01-09T20:07:36.444Z,99601.19
2023-01-09T20:10:03.188Z,99598.56
2023-01-09T20:12:29.792Z,99605.53
2023-01-09T20:14:56.377Z,99602.91
2023-01-09T20:17:23.295Z,99605.53
2023-01-09T20:19:49.928Z,99609.88
2023-01-09T20:22:16.580Z,99608.09
2023-01-09T20:24:43.149Z,99608.09
2023-01-09T20:27:09.738Z,99607.25
2023-01-09T20:29:36.375Z,99604.66
2023-01-09T20:32:06.191Z,99612.53
2023-01-09T20:34:32.844Z,99608.22
2023-01-09T20:36:59.478Z,99617.84
2023-01-09T20:39:26.455Z,99618.72
2023-01-09T20:41:53.070Z,99625.72
2023-01-09T20:44:19.682Z,99629.25
2023-01-09T20:46:51.987Z,99629.28
2023-01-09T20:49:18.643Z,99628.41
2023-01-09T20:51:48.158Z,99635.41
2023-01-09T20:54:15.942Z,99645.88
2023-01-09T20:56:42.901Z,99652.00
2023-01-09T20:59:17.011Z,99653.72
2023-01-09T21:01:43.673Z,99663.38
2023-01-09T21:04:10.454Z,99664.25
2023-01-09T21:06:37.198Z,99666.84
2023-01-09T21:09:04.513Z,99667.75
2023-01-09T21:11:31.398Z,99668.66
2023-01-09T21:13:58.003Z,99661.69
2023-01-09T21:16:25.139Z,99667.75
2023-01-09T21:18:52.680Z,99671.19
2023-01-09T21:21:22.492Z,99666.81
2023-01-09T21:23:51.931Z,99678.09
2023-01-09T21:26:22.252Z,99680.66
2023-01-09T21:28:50.159Z,99684.13
2023-01-09T21:31:19.648Z,99691.97
2023-01-09T21:33:49.659Z,99691.06
2023-01-09T21:36:17.192Z,99702.38
2023-01-09T21:38:43.823Z,99711.09
2023-01-09T21:41:29.234Z,99711.06
2023-01-09T21:44:14.741Z,99711.97
2023-01-09T21:46:55.737Z,99712.81
2023-01-09T21:49:26.648Z,99718.84
2023-01-09T21:51:53.943Z,99718.88
2023-01-09T21:54:23.418Z,99723.19
2023-01-09T21:56:53.470Z,99735.34
2023-01-09T21:59:20.364Z,99733.63
2023-01-09T22:01:48.671Z,99739.72
2023-01-09T22:04:17.178Z,99747.50
2023-01-09T22:06:43.789Z,99758.81
2023-01-09T22:09:13.290Z,99760.50
2023-01-09T22:11:40.517Z,99768.28
2023-01-09T22:14:07.374Z,99769.13
2023-01-09T22:16:34.181Z,99764.75
2023-01-09T22:19:00.966Z,99783.03
2023-01-09T22:21:27.657Z,99775.97
2023-01-09T22:23:54.374Z,99788.13
2023-01-09T22:26:21.162Z,99793.34
2023-01-09T22:28:48.511Z,99794.22
2023-01-09T22:31:20.209Z,99799.41
2023-01-09T22:33:51.096Z,99798.53
2023-01-09T22:36:21.079Z,99794.16
2023-01-09T22:38:47.870Z,99797.63
2023-01-09T22:41:14.795Z,99800.19
2023-01-09T22:43:41.488Z,99810.66
2023-01-09T22:46:11.385Z,99809.75
2023-01-09T22:48:38.549Z,99807.09
2023-01-09T22:51:07.551Z,99811.44
2023-01-09T22:53:34.513Z,99807.88
2023-01-09T22:56:03.679Z,99817.47
2023-01-09T22:58:32.905Z,99813.97
2023-01-09T23:00:59.945Z,99818.31
2023-01-09T23:03:27.230Z,99833.13
2023-01-09T23:06:08.456Z,99835.72
2023-01-09T23:08:35.181Z,99836.63
2023-01-09T23:11:02.941Z,99835.69
2023-01-09T23:13:29.641Z,99834.84
2023-01-09T23:15:56.705Z,99849.63
2023-01-09T23:18:23.374Z,99850.44
2023-01-09T23:20:58.763Z,99851.31
2023-01-09T23:23:27.306Z,99855.59
2023-01-09T23:25:56.477Z,99862.50
2023-01-09T23:28:23.881Z,99868.66
2023-01-09T23:30:50.525Z,99873.03
2023-01-09T23:33:17.344Z,99875.59
2023-01-09T23:35:44.686Z,99875.56
2023-01-09T23:38:11.772Z,99879.91
2023-01-09T23:40:40.082Z,99879.00
2023-01-09T23:43:09.779Z,99892.00
2023-01-09T23:45:41.505Z,99881.59
2023-01-09T23:48:10.463Z,99895.56
2023-01-09T23:50:37.675Z,99896.44
2023-01-09T23:53:04.684Z,99891.19
2023-01-09T23:55:31.710Z,99896.41
2023-01-09T23:57:58.378Z,99908.63
